sensor_id;sensor_type;location;lat;lon;timestamp;pressure;altitude;pressure_sealevel;temperature;humidity
53526;BME280;40551;50.478;19.378;2023-02-02T00:01:59;96963.89;;;0.70;92.74
53526;BME280;40551;50.478;19.378;2023-02-02T00:04:34;96965.77;;;0.64;92.63
53526;BME280;40551;50.478;19.378;2023-02-02T00:07:07;96973.80;;;0.64;92.50
53526;BME280;40551;50.478;19.378;2023-02-02T00:09:39;96967.71;;;0.63;92.42
53526;BME280;40551;50.478;19.378;2023-02-02T00:12:09;96974.66;;;0.61;92.44
53526;BME280;40551;50.478;19.378;2023-02-02T00:14:40;96971.90;;;0.54;92.85
53526;BME280;40551;50.478;19.378;2023-02-02T00:17:11;96975.34;;;0.55;92.77
53526;BME280;40551;50.478;19.378;2023-02-02T00:19:42;96979.42;;;0.51;92.84
53526;BME280;40551;50.478;19.378;2023-02-02T00:22:16;96981.60;;;0.51;92.83
53526;BME280;40551;50.478;19.378;2023-02-02T00:24:46;96981.89;;;0.52;92.71
53526;BME280;40551;50.478;19.378;2023-02-02T00:27:17;96984.88;;;0.48;93.05
53526;BME280;40551;50.478;19.378;2023-02-02T00:29:48;96982.43;;;0.49;92.76
53526;BME280;40551;50.478;19.378;2023-02-02T00:32:23;96985.36;;;0.45;92.95
53526;BME280;40551;50.478;19.378;2023-02-02T00:34:53;96988.34;;;0.47;93.22
53526;BME280;40551;50.478;19.378;2023-02-02T00:37:24;96991.77;;;0.44;93.18
53526;BME280;40551;50.478;19.378;2023-02-02T00:39:55;96987.05;;;0.46;93.08
53526;BME280;40551;50.478;19.378;2023-02-02T00:42:26;96986.77;;;0.42;93.11
53526;BME280;40551;50.478;19.378;2023-02-02T00:44:58;96988.40;;;0.43;93.13
53526;BME280;40551;50.478;19.378;2023-02-02T00:47:49;96987.73;;;0.43;92.91
53526;BME280;40551;50.478;19.378;2023-02-02T00:50:21;96985.84;;;0.43;92.86
53526;BME280;40551;50.478;19.378;2023-02-02T00:52:53;96989.29;;;0.45;93.11
53526;BME280;40551;50.478;19.378;2023-02-02T00:55:23;96993.02;;;0.46;93.11
53526;BME280;40551;50.478;19.378;2023-02-02T00:57:56;96991.80;;;0.43;93.08
53526;BME280;40551;50.478;19.378;2023-02-02T01:00:28;96996.66;;;0.45;93.23
53526;BME280;40551;50.478;19.378;2023-02-02T01:02:58;96999.25;;;0.47;93.11
53526;BME280;40551;50.478;19.378;2023-02-02T01:05:34;96997.39;;;0.44;93.31
53526;BME280;40551;50.478;19.378;2023-02-02T01:08:06;96998.05;;;0.47;93.34
53526;BME280;40551;50.478;19.378;2023-02-02T01:10:38;96999.00;;;0.49;93.20
53526;BME280;40551;50.478;19.378;2023-02-02T01:13:10;96994.20;;;0.49;93.01
53526;BME280;40551;50.478;19.378;2023-02-02T01:15:40;96996.05;;;0.49;93.24
53526;BME280;40551;50.478;19.378;2023-02-02T01:18:13;96995.84;;;0.47;93.38
53526;BME280;40551;50.478;19.378;2023-02-02T01:20:43;96994.29;;;0.47;93.40
53526;BME280;40551;50.478;19.378;2023-02-02T01:23:15;96997.18;;;0.45;93.35
53526;BME280;40551;50.478;19.378;2023-02-02T01:25:51;96999.58;;;0.47;93.48
53526;BME280;40551;50.478;19.378;2023-02-02T01:28:23;96999.41;;;0.44;93.42
53526;BME280;40551;50.478;19.378;2023-02-02T01:30:57;96999.41;;;0.47;93.55
53526;BME280;40551;50.478;19.378;2023-02-02T01:33:29;96999.11;;;0.49;93.40
53526;BME280;40551;50.478;19.378;2023-02-02T01:36:02;97000.46;;;0.52;93.59
53526;BME280;40551;50.478;19.378;2023-02-02T01:38:34;97004.04;;;0.50;93.60
53526;BME280;40551;50.478;19.378;2023-02-02T01:41:06;97007.67;;;0.52;93.65
53526;BME280;40551;50.478;19.378;2023-02-02T01:43:54;97014.30;;;0.55;93.38
53526;BME280;40551;50.478;19.378;2023-02-02T01:46:28;97016.28;;;0.56;93.53
53526;BME280;40551;50.478;19.378;2023-02-02T01:49:04;97021.00;;;0.57;93.31
53526;BME280;40551;50.478;19.378;2023-02-02T01:51:41;97014.59;;;0.58;93.27
53526;BME280;40551;50.478;19.378;2023-02-02T01:54:17;97019.19;;;0.59;93.45
53526;BME280;40551;50.478;19.378;2023-02-02T01:56:53;97019.98;;;0.60;93.34
53526;BME280;40551;50.478;19.378;2023-02-02T01:59:27;97023.97;;;0.61;93.49
53526;BME280;40551;50.478;19.378;2023-02-02T02:01:59;97024.25;;;0.62;93.41
53526;BME280;40551;50.478;19.378;2023-02-02T02:04:32;97019.00;;;0.62;93.39
53526;BME280;40551;50.478;19.378;2023-02-02T02:07:05;97023.22;;;0.62;93.44
53526;BME280;40551;50.478;19.378;2023-02-02T02:09:38;97025.95;;;0.62;93.41
53526;BME280;40551;50.478;19.378;2023-02-02T02:12:10;97022.38;;;0.62;93.54
53526;BME280;40551;50.478;19.378;2023-02-02T02:14:46;97024.54;;;0.58;93.62
53526;BME280;40551;50.478;19.378;2023-02-02T02:17:45;97024.63;;;0.59;93.65
53526;BME280;40551;50.478;19.378;2023-02-02T02:20:42;97032.67;;;0.61;93.50
53526;BME280;40551;50.478;19.378;2023-02-02T02:24:03;97037.20;;;0.62;93.70
53526;BME280;40551;50.478;19.378;2023-02-02T02:27:10;97041.70;;;0.62;93.55
53526;BME280;40551;50.478;19.378;2023-02-02T02:30:04;97045.55;;;0.63;93.77
53526;BME280;40551;50.478;19.378;2023-02-02T02:32:46;97052.56;;;0.65;93.82
53526;BME280;40551;50.478;19.378;2023-02-02T02:35:30;97057.64;;;0.66;93.74
53526;BME280;40551;50.478;19.378;2023-02-02T02:38:07;97059.11;;;0.67;93.71
53526;BME280;40551;50.478;19.378;2023-02-02T02:40:43;97062.75;;;0.69;93.62
53526;BME280;40551;50.478;19.378;2023-02-02T02:43:21;97063.16;;;0.71;93.70
53526;BME280;40551;50.478;19.378;2023-02-02T02:45:56;97063.46;;;0.72;93.56
53526;BME280;40551;50.478;19.378;2023-02-02T02:48:29;97067.66;;;0.73;93.59
53526;BME280;40551;50.478;19.378;2023-02-02T02:51:07;97067.92;;;0.74;93.62
53526;BME280;40551;50.478;19.378;2023-02-02T02:53:40;97067.65;;;0.76;93.60
53526;BME280;40551;50.478;19.378;2023-02-02T02:56:17;97066.37;;;0.77;93.66
53526;BME280;40551;50.478;19.378;2023-02-02T02:58:57;97069.39;;;0.78;93.64
53526;BME280;40551;50.478;19.378;2023-02-02T03:01:35;97067.90;;;0.80;93.55
53526;BME280;40551;50.478;19.378;2023-02-02T03:04:14;97071.61;;;0.80;93.50
53526;BME280;40551;50.478;19.378;2023-02-02T03:06:52;97073.14;;;0.81;93.57
53526;BME280;40551;50.478;19.378;2023-02-02T03:09:27;97073.91;;;0.82;93.43
53526;BME280;40551;50.478;19.378;2023-02-02T03:12:02;97073.77;;;0.82;93.66
53526;BME280;40551;50.478;19.378;2023-02-02T03:14:36;97076.06;;;0.83;93.61
53526;BME280;40551;50.478;19.378;2023-02-02T03:17:08;97073.39;;;0.85;93.58
53526;BME280;40551;50.478;19.378;2023-02-02T03:19:38;97075.86;;;0.86;93.66
53526;BME280;40551;50.478;19.378;2023-02-02T03:22:10;97074.73;;;0.82;93.62
53526;BME280;40551;50.478;19.378;2023-02-02T03:24:40;97073.33;;;0.83;93.68
53526;BME280;40551;50.478;19.378;2023-02-02T03:27:12;97073.02;;;0.80;93.76
53526;BME280;40551;50.478;19.378;2023-02-02T03:29:42;97073.95;;;0.81;93.81
53526;BME280;40551;50.478;19.378;2023-02-02T03:32:13;97075.08;;;0.80;93.88
53526;BME280;40551;50.478;19.378;2023-02-02T03:34:44;97081.73;;;0.82;93.81
53526;BME280;40551;50.478;19.378;2023-02-02T03:37:16;97081.20;;;0.80;93.97
53526;BME280;40551;50.478;19.378;2023-02-02T03:39:48;97081.58;;;0.82;93.83
53526;BME280;40551;50.478;19.378;2023-02-02T03:42:18;97080.08;;;0.84;93.79
53526;BME280;40551;50.478;19.378;2023-02-02T03:44:49;97079.20;;;0.82;94.00
53526;BME280;40551;50.478;19.378;2023-02-02T03:47:20;97084.50;;;0.85;93.98
53526;BME280;40551;50.478;19.378;2023-02-02T03:49:51;97081.23;;;0.82;93.75
53526;BME280;40551;50.478;19.378;2023-02-02T03:52:21;97081.91;;;0.85;93.93
53526;BME280;40551;50.478;19.378;2023-02-02T03:54:53;97078.67;;;0.82;94.07
53526;BME280;40551;50.478;19.378;2023-02-02T03:57:23;97078.39;;;0.84;94.01
53526;BME280;40551;50.478;19.378;2023-02-02T03:59:55;97076.67;;;0.81;93.97
53526;BME280;40551;50.478;19.378;2023-02-02T04:02:25;97075.69;;;0.84;94.01
53526;BME280;40551;50.478;19.378;2023-02-02T04:04:57;97075.48;;;0.82;94.04
53526;BME280;40551;50.478;19.378;2023-02-02T04:07:29;97077.30;;;0.85;94.01
53526;BME280;40551;50.478;19.378;2023-02-02T04:09:59;97072.95;;;0.86;93.90
53526;BME280;40551;50.478;19.378;2023-02-02T04:12:30;97071.61;;;0.83;94.03
53526;BME280;40551;50.478;19.378;2023-02-02T04:15:03;97069.73;;;0.86;93.94
53526;BME280;40551;50.478;19.378;2023-02-02T04:17:34;97067.31;;;0.86;93.99
53526;BME280;40551;50.478;19.378;2023-02-02T04:20:07;97067.24;;;0.87;93.81
53526;BME280;40551;50.478;19.378;2023-02-02T04:22:39;97064.97;;;0.83;93.96
53526;BME280;40551;50.478;19.378;2023-02-02T04:25:09;97072.17;;;0.85;93.99
53526;BME280;40551;50.478;19.378;2023-02-02T04:27:40;97065.99;;;0.83;94.09
53526;BME280;40551;50.478;19.378;2023-02-02T04:30:11;97064.11;;;0.86;94.08
53526;BME280;40551;50.478;19.378;2023-02-02T04:32:43;97063.00;;;0.82;94.04
53526;BME280;40551;50.478;19.378;2023-02-02T04:35:13;97069.34;;;0.84;93.98
53526;BME280;40551;50.478;19.378;2023-02-02T04:37:45;97061.98;;;0.82;94.15
53526;BME280;40551;50.478;19.378;2023-02-02T04:40:15;97068.45;;;0.85;94.08
53526;BME280;40551;50.478;19.378;2023-02-02T04:42:46;97065.13;;;0.83;94.28
53526;BME280;40551;50.478;19.378;2023-02-02T04:45:17;97062.41;;;0.85;93.98
53526;BME280;40551;50.478;19.378;2023-02-02T04:47:48;97061.23;;;0.83;94.07
53526;BME280;40551;50.478;19.378;2023-02-02T04:50:21;97065.69;;;0.85;93.90
53526;BME280;40551;50.478;19.378;2023-02-02T04:52:52;97067.81;;;0.87;93.94
53526;BME280;40551;50.478;19.378;2023-02-02T04:55:23;97064.27;;;0.88;93.87
53526;BME280;40551;50.478;19.378;2023-02-02T04:57:55;97061.70;;;0.86;93.94
53526;BME280;40551;50.478;19.378;2023-02-02T05:00:25;97064.59;;;0.89;93.93
53526;BME280;40551;50.478;19.378;2023-02-02T05:02:57;97066.04;;;0.85;94.03
53526;BME280;40551;50.478;19.378;2023-02-02T05:05:27;97064.84;;;0.88;93.81
53526;BME280;40551;50.478;19.378;2023-02-02T05:07:59;97066.23;;;0.85;94.03
53526;BME280;40551;50.478;19.378;2023-02-02T05:10:29;97070.46;;;0.88;93.96
53526;BME280;40551;50.478;19.378;2023-02-02T05:13:01;97076.27;;;0.85;93.94
53526;BME280;40551;50.478;19.378;2023-02-02T05:15:31;97077.66;;;0.87;94.07
53526;BME280;40551;50.478;19.378;2023-02-02T05:18:03;97077.86;;;0.84;94.03
53526;BME280;40551;50.478;19.378;2023-02-02T05:20:35;97077.48;;;0.87;93.98
53526;BME280;40551;50.478;19.378;2023-02-02T05:23:05;97080.02;;;0.88;93.57
53526;BME280;40551;50.478;19.378;2023-02-02T05:25:36;97073.34;;;0.83;93.73
53526;BME280;40551;50.478;19.378;2023-02-02T05:28:06;97071.70;;;0.85;93.87
53526;BME280;40551;50.478;19.378;2023-02-02T05:30:40;97069.42;;;0.80;93.72
53526;BME280;40551;50.478;19.378;2023-02-02T05:33:11;97069.05;;;0.80;93.63
53526;BME280;40551;50.478;19.378;2023-02-02T05:35:42;97065.00;;;0.80;93.79
53526;BME280;40551;50.478;19.378;2023-02-02T05:38:15;97064.41;;;0.75;93.94
53526;BME280;40551;50.478;19.378;2023-02-02T05:40:48;97064.76;;;0.75;93.90
53526;BME280;40551;50.478;19.378;2023-02-02T05:43:20;97067.63;;;0.76;93.92
53526;BME280;40551;50.478;19.378;2023-02-02T05:45:55;97063.17;;;0.76;94.06
53526;BME280;40551;50.478;19.378;2023-02-02T05:48:27;97064.96;;;0.78;94.07
53526;BME280;40551;50.478;19.378;2023-02-02T05:51:01;97061.20;;;0.78;93.89
53526;BME280;40551;50.478;19.378;2023-02-02T05:53:34;97059.25;;;0.79;93.79
53526;BME280;40551;50.478;19.378;2023-02-02T05:56:06;97056.81;;;0.80;93.83
53526;BME280;40551;50.478;19.378;2023-02-02T05:58:37;97054.95;;;0.79;93.80
53526;BME280;40551;50.478;19.378;2023-02-02T06:01:07;97054.03;;;0.81;93.94
53526;BME280;40551;50.478;19.378;2023-02-02T06:03:39;97051.70;;;0.77;94.11
53526;BME280;40551;50.478;19.378;2023-02-02T06:06:12;97052.64;;;0.78;94.09
53526;BME280;40551;50.478;19.378;2023-02-02T06:08:43;97053.58;;;0.79;93.82
53526;BME280;40551;50.478;19.378;2023-02-02T06:11:14;97048.57;;;0.80;93.78
53526;BME280;40551;50.478;19.378;2023-02-02T06:13:47;97044.73;;;0.76;94.15
53526;BME280;40551;50.478;19.378;2023-02-02T06:16:17;97045.34;;;0.78;94.03
53526;BME280;40551;50.478;19.378;2023-02-02T06:18:48;97043.66;;;0.74;94.01
53526;BME280;40551;50.478;19.378;2023-02-02T06:21:20;97048.66;;;0.76;93.96
53526;BME280;40551;50.478;19.378;2023-02-02T06:23:52;97049.71;;;0.76;93.74
53526;BME280;40551;50.478;19.378;2023-02-02T06:26:24;97047.70;;;0.75;93.65
53526;BME280;40551;50.478;19.378;2023-02-02T06:28:56;97053.17;;;0.75;93.76
53526;BME280;40551;50.478;19.378;2023-02-02T06:31:28;97048.19;;;0.76;93.80
53526;BME280;40551;50.478;19.378;2023-02-02T06:34:00;97049.08;;;0.75;93.74
53526;BME280;40551;50.478;19.378;2023-02-02T06:36:30;97038.85;;;0.75;93.81
53526;BME280;40551;50.478;19.378;2023-02-02T06:39:02;97038.98;;;0.73;94.03
53526;BME280;40551;50.478;19.378;2023-02-02T06:41:35;97038.63;;;0.76;93.89
53526;BME280;40551;50.478;19.378;2023-02-02T06:44:07;97037.82;;;0.78;93.86
53526;BME280;40551;50.478;19.378;2023-02-02T06:46:39;97038.44;;;0.79;93.73
53526;BME280;40551;50.478;19.378;2023-02-02T06:49:09;97039.00;;;0.81;93.87
53526;BME280;40551;50.478;19.378;2023-02-02T06:51:41;97041.40;;;0.78;94.00
53526;BME280;40551;50.478;19.378;2023-02-02T06:54:12;97040.40;;;0.80;93.98
53526;BME280;40551;50.478;19.378;2023-02-02T06:56:44;97038.92;;;0.82;93.95
53526;BME280;40551;50.478;19.378;2023-02-02T06:59:14;97041.50;;;0.84;93.84
53526;BME280;40551;50.478;19.378;2023-02-02T07:01:48;97041.40;;;0.81;93.98
53526;BME280;40551;50.478;19.378;2023-02-02T07:04:20;97042.38;;;0.81;93.91
53526;BME280;40551;50.478;19.378;2023-02-02T07:06:50;97035.63;;;0.83;93.68
53526;BME280;40551;50.478;19.378;2023-02-02T07:09:22;97035.48;;;0.77;93.75
53526;BME280;40551;50.478;19.378;2023-02-02T07:11:52;97037.52;;;0.77;93.81
53526;BME280;40551;50.478;19.378;2023-02-02T07:14:24;97040.04;;;0.72;93.80
53526;BME280;40551;50.478;19.378;2023-02-02T07:16:56;97032.39;;;0.72;93.83
53526;BME280;40551;50.478;19.378;2023-02-02T07:19:26;97031.88;;;0.72;93.80
53526;BME280;40551;50.478;19.378;2023-02-02T07:21:58;97029.43;;;0.67;93.88
53526;BME280;40551;50.478;19.378;2023-02-02T07:24:28;97024.56;;;0.69;93.90
53526;BME280;40551;50.478;19.378;2023-02-02T07:27:00;97027.77;;;0.63;93.92
53526;BME280;40551;50.478;19.378;2023-02-02T07:29:30;97020.84;;;0.65;93.88
53526;BME280;40551;50.478;19.378;2023-02-02T07:32:02;97011.53;;;0.61;94.01
53526;BME280;40551;50.478;19.378;2023-02-02T07:34:32;97017.45;;;0.62;93.98
53526;BME280;40551;50.478;19.378;2023-02-02T07:37:03;97028.16;;;0.57;94.10
53526;BME280;40551;50.478;19.378;2023-02-02T07:39:34;97024.59;;;0.60;94.13
53526;BME280;40551;50.478;19.378;2023-02-02T07:42:05;97021.52;;;0.54;94.17
53526;BME280;40551;50.478;19.378;2023-02-02T07:44:38;97016.83;;;0.55;93.97
53526;BME280;40551;50.478;19.378;2023-02-02T07:47:08;97015.02;;;0.55;94.09
53526;BME280;40551;50.478;19.378;2023-02-02T07:49:40;97010.70;;;0.50;94.09
53526;BME280;40551;50.478;19.378;2023-02-02T07:52:10;97015.25;;;0.51;94.23
53526;BME280;40551;50.478;19.378;2023-02-02T07:54:41;97015.02;;;0.49;94.36
53526;BME280;40551;50.478;19.378;2023-02-02T07:57:12;97015.30;;;0.53;94.27
53526;BME280;40551;50.478;19.378;2023-02-02T07:59:43;97018.08;;;0.52;94.49
53526;BME280;40551;50.478;19.378;2023-02-02T08:02:13;97018.31;;;0.56;94.46
53526;BME280;40551;50.478;19.378;2023-02-02T08:04:45;97025.39;;;0.55;94.33
53526;BME280;40551;50.478;19.378;2023-02-02T08:07:17;97020.44;;;0.58;94.30
53526;BME280;40551;50.478;19.378;2023-02-02T08:09:50;97023.31;;;0.61;94.10
53526;BME280;40551;50.478;19.378;2023-02-02T08:12:22;97023.54;;;0.62;94.32
53526;BME280;40551;50.478;19.378;2023-02-02T08:14:55;97028.35;;;0.65;94.34
53526;BME280;40551;50.478;19.378;2023-02-02T08:17:28;97024.20;;;0.69;94.33
53526;BME280;40551;50.478;19.378;2023-02-02T08:19:58;97026.30;;;0.71;94.22
53526;BME280;40551;50.478;19.378;2023-02-02T08:22:31;97030.77;;;0.67;94.06
53526;BME280;40551;50.478;19.378;2023-02-02T08:25:02;97030.52;;;0.69;94.19
53526;BME280;40551;50.478;19.378;2023-02-02T08:27:33;97037.15;;;0.72;94.23
53526;BME280;40551;50.478;19.378;2023-02-02T08:30:11;97033.18;;;0.70;94.36
53526;BME280;40551;50.478;19.378;2023-02-02T08:32:43;97031.15;;;0.72;94.15
53526;BME280;40551;50.478;19.378;2023-02-02T08:35:13;97033.58;;;0.74;94.19
53526;BME280;40551;50.478;19.378;2023-02-02T08:37:47;97034.83;;;0.74;94.40
53526;BME280;40551;50.478;19.378;2023-02-02T08:40:21;97030.84;;;0.78;94.43
53526;BME280;40551;50.478;19.378;2023-02-02T08:42:55;97031.34;;;0.80;94.34
53526;BME280;40551;50.478;19.378;2023-02-02T08:45:26;97033.89;;;0.81;94.10
53526;BME280;40551;50.478;19.378;2023-02-02T08:48:18;97036.49;;;0.82;94.11
53526;BME280;40551;50.478;19.378;2023-02-02T08:50:55;97038.53;;;0.85;94.14
53526;BME280;40551;50.478;19.378;2023-02-02T08:53:28;97038.10;;;0.87;94.18
53526;BME280;40551;50.478;19.378;2023-02-02T08:56:00;97044.19;;;0.88;94.13
53526;BME280;40551;50.478;19.378;2023-02-02T08:58:33;97043.08;;;0.89;94.01
53526;BME280;40551;50.478;19.378;2023-02-02T09:01:06;97051.81;;;0.91;94.00
53526;BME280;40551;50.478;19.378;2023-02-02T09:03:40;97052.70;;;0.94;94.17
53526;BME280;40551;50.478;19.378;2023-02-02T09:06:14;97048.95;;;0.96;94.06
53526;BME280;40551;50.478;19.378;2023-02-02T09:08:46;97056.16;;;0.99;93.98
53526;BME280;40551;50.478;19.378;2023-02-02T09:11:19;97057.90;;;1.01;94.11
53526;BME280;40551;50.478;19.378;2023-02-02T09:13:57;97059.55;;;1.04;93.98
53526;BME280;40551;50.478;19.378;2023-02-02T09:16:30;97061.54;;;1.05;93.68
53526;BME280;40551;50.478;19.378;2023-02-02T09:19:06;97065.98;;;1.05;93.73
53526;BME280;40551;50.478;19.378;2023-02-02T09:21:40;97065.28;;;1.05;93.66
53526;BME280;40551;50.478;19.378;2023-02-02T09:24:10;97065.44;;;1.06;93.77
53526;BME280;40551;50.478;19.378;2023-02-02T09:26:43;97066.59;;;1.04;93.87
53526;BME280;40551;50.478;19.378;2023-02-02T09:29:15;97072.77;;;1.06;93.85
53526;BME280;40551;50.478;19.378;2023-02-02T09:31:48;97074.88;;;1.07;93.69
53526;BME280;40551;50.478;19.378;2023-02-02T09:34:19;97074.44;;;1.06;93.33
53526;BME280;40551;50.478;19.378;2023-02-02T09:36:50;97076.66;;;1.06;93.43
53526;BME280;40551;50.478;19.378;2023-02-02T09:39:22;97081.59;;;1.01;93.65
53526;BME280;40551;50.478;19.378;2023-02-02T09:42:25;97085.60;;;1.03;93.72
53526;BME280;40551;50.478;19.378;2023-02-02T09:45:05;97090.19;;;1.03;93.64
53526;BME280;40551;50.478;19.378;2023-02-02T09:47:53;97089.48;;;1.03;93.55
53526;BME280;40551;50.478;19.378;2023-02-02T09:50:37;97092.83;;;1.05;93.64
53526;BME280;40551;50.478;19.378;2023-02-02T09:53:17;97098.60;;;1.05;93.45
53526;BME280;40551;50.478;19.378;2023-02-02T09:55:53;97105.95;;;1.05;93.41
53526;BME280;40551;50.478;19.378;2023-02-02T09:58:29;97113.14;;;1.08;93.53
53526;BME280;40551;50.478;19.378;2023-02-02T10:01:06;97117.29;;;1.09;93.44
53526;BME280;40551;50.478;19.378;2023-02-02T10:03:41;97117.48;;;1.09;93.61
53526;BME280;40551;50.478;19.378;2023-02-02T10:06:24;97120.66;;;1.13;93.81
53526;BME280;40551;50.478;19.378;2023-02-02T10:09:05;97123.06;;;1.16;93.73
53526;BME280;40551;50.478;19.378;2023-02-02T10:11:43;97125.77;;;1.19;93.76
53526;BME280;40551;50.478;19.378;2023-02-02T10:14:19;97128.38;;;1.21;93.54
53526;BME280;40551;50.478;19.378;2023-02-02T10:16:55;97130.15;;;1.23;93.48
53526;BME280;40551;50.478;19.378;2023-02-02T10:19:27;97133.88;;;1.23;93.40
53526;BME280;40551;50.478;19.378;2023-02-02T10:22:04;97136.91;;;1.24;93.52
53526;BME280;40551;50.478;19.378;2023-02-02T10:24:40;97138.31;;;1.26;93.52
53526;BME280;40551;50.478;19.378;2023-02-02T10:27:15;97142.82;;;1.27;93.66
53526;BME280;40551;50.478;19.378;2023-02-02T10:29:52;97148.10;;;1.30;93.58
53526;BME280;40551;50.478;19.378;2023-02-02T10:32:31;97153.18;;;1.34;93.71
53526;BME280;40551;50.478;19.378;2023-02-02T10:35:18;97158.09;;;1.34;93.53
53526;BME280;40551;50.478;19.378;2023-02-02T10:37:54;97162.66;;;1.36;93.54
53526;BME280;40551;50.478;19.378;2023-02-02T10:40:38;97162.51;;;1.38;93.78
53526;BME280;40551;50.478;19.378;2023-02-02T10:43:31;97166.92;;;1.41;93.56
53526;BME280;40551;50.478;19.378;2023-02-02T10:46:21;97170.12;;;1.45;93.65
53526;BME280;40551;50.478;19.378;2023-02-02T10:49:07;97172.56;;;1.49;93.51
53526;BME280;40551;50.478;19.378;2023-02-02T10:51:46;97172.36;;;1.53;93.31
53526;BME280;40551;50.478;19.378;2023-02-02T10:54:33;97175.83;;;1.54;93.55
53526;BME280;40551;50.478;19.378;2023-02-02T10:57:40;97178.62;;;1.56;93.44
53526;BME280;40551;50.478;19.378;2023-02-02T11:00:20;97188.38;;;1.59;93.47
53526;BME280;40551;50.478;19.378;2023-02-02T11:02:53;97183.44;;;1.61;93.44
53526;BME280;40551;50.478;19.378;2023-02-02T11:05:27;97187.02;;;1.64;93.34
53526;BME280;40551;50.478;19.378;2023-02-02T11:08:19;97189.79;;;1.69;93.46
53526;BME280;40551;50.478;19.378;2023-02-02T11:10:53;97191.44;;;1.73;93.40
53526;BME280;40551;50.478;19.378;2023-02-02T11:13:29;97197.31;;;1.77;93.39
53526;BME280;40551;50.478;19.378;2023-02-02T11:16:23;97200.29;;;1.82;93.16
53526;BME280;40551;50.478;19.378;2023-02-02T11:19:25;97203.62;;;1.85;93.25
53526;BME280;40551;50.478;19.378;2023-02-02T11:22:00;97203.27;;;1.86;92.86
53526;BME280;40551;50.478;19.378;2023-02-02T11:24:37;97209.55;;;1.87;92.74
53526;BME280;40551;50.478;19.378;2023-02-02T11:27:16;97206.63;;;1.87;92.70
53526;BME280;40551;50.478;19.378;2023-02-02T11:29:49;97219.11;;;1.87;92.92
53526;BME280;40551;50.478;19.378;2023-02-02T11:32:28;97218.73;;;1.87;92.70
53526;BME280;40551;50.478;19.378;2023-02-02T11:35:20;97217.82;;;1.88;92.66
53526;BME280;40551;50.478;19.378;2023-02-02T11:38:07;97221.58;;;1.89;92.78
53526;BME280;40551;50.478;19.378;2023-02-02T11:40:42;97220.46;;;1.89;92.76
53526;BME280;40551;50.478;19.378;2023-02-02T11:43:22;97223.77;;;1.92;92.67
53526;BME280;40551;50.478;19.378;2023-02-02T11:45:58;97224.03;;;1.93;92.58
53526;BME280;40551;50.478;19.378;2023-02-02T11:48:35;97230.76;;;1.92;92.43
53526;BME280;40551;50.478;19.378;2023-02-02T11:51:10;97231.47;;;1.91;92.40
53526;BME280;40551;50.478;19.378;2023-02-02T11:54:01;97233.55;;;1.91;92.40
53526;BME280;40551;50.478;19.378;2023-02-02T11:56:36;97239.68;;;1.91;92.30
53526;BME280;40551;50.478;19.378;2023-02-02T11:59:28;97243.77;;;1.91;92.27
53526;BME280;40551;50.478;19.378;2023-02-02T12:02:25;97247.23;;;1.91;92.25
53526;BME280;40551;50.478;19.378;2023-02-02T12:05:34;97254.13;;;1.90;92.03
53526;BME280;40551;50.478;19.378;2023-02-02T12:08:09;97258.08;;;1.90;91.91
53526;BME280;40551;50.478;19.378;2023-02-02T12:10:45;97257.98;;;1.91;91.82
53526;BME280;40551;50.478;19.378;2023-02-02T12:13:27;97261.55;;;1.94;91.41
53526;BME280;40551;50.478;19.378;2023-02-02T12:16:08;97265.84;;;1.97;91.31
53526;BME280;40551;50.478;19.378;2023-02-02T12:18:53;97266.33;;;2.00;91.26
53526;BME280;40551;50.478;19.378;2023-02-02T12:21:36;97270.91;;;2.04;91.21
53526;BME280;40551;50.478;19.378;2023-02-02T12:24:23;97267.42;;;2.07;90.84
53526;BME280;40551;50.478;19.378;2023-02-02T12:27:09;97275.06;;;2.11;90.97
53526;BME280;40551;50.478;19.378;2023-02-02T12:29:58;97272.93;;;2.15;90.55
53526;BME280;40551;50.478;19.378;2023-02-02T12:33:01;97283.48;;;2.16;90.48
53526;BME280;40551;50.478;19.378;2023-02-02T12:35:50;97280.48;;;2.17;90.19
53526;BME280;40551;50.478;19.378;2023-02-02T12:38:35;97286.20;;;2.16;89.57
53526;BME280;40551;50.478;19.378;2023-02-02T12:41:22;97287.77;;;2.16;89.30
53526;BME280;40551;50.478;19.378;2023-02-02T12:44:01;97296.42;;;2.16;89.29
53526;BME280;40551;50.478;19.378;2023-02-02T12:46:48;97304.14;;;2.19;89.13
53526;BME280;40551;50.478;19.378;2023-02-02T12:49:44;97308.61;;;2.21;88.82
53526;BME280;40551;50.478;19.378;2023-02-02T12:52:34;97313.31;;;2.26;88.71
53526;BME280;40551;50.478;19.378;2023-02-02T12:55:19;97318.25;;;2.29;88.56
53526;BME280;40551;50.478;19.378;2023-02-02T12:58:02;97323.25;;;2.31;88.50
53526;BME280;40551;50.478;19.378;2023-02-02T13:03:37;97341.09;;;2.33;88.36
53526;BME280;40551;50.478;19.378;2023-02-02T13:06:31;97343.04;;;2.32;87.73
53526;BME280;40551;50.478;19.378;2023-02-02T13:09:13;97348.16;;;2.27;87.48
53526;BME280;40551;50.478;19.378;2023-02-02T13:11:52;97350.48;;;2.25;87.39
53526;BME280;40551;50.478;19.378;2023-02-02T13:14:30;97359.70;;;2.22;87.39
53526;BME280;40551;50.478;19.378;2023-02-02T13:17:06;97359.77;;;2.21;87.36
53526;BME280;40551;50.478;19.378;2023-02-02T13:19:42;97363.70;;;2.21;87.29
53526;BME280;40551;50.478;19.378;2023-02-02T13:22:18;97365.95;;;2.21;87.29
53526;BME280;40551;50.478;19.378;2023-02-02T13:24:57;97367.77;;;2.22;87.16
53526;BME280;40551;50.478;19.378;2023-02-02T13:27:31;97368.61;;;2.25;87.42
53526;BME280;40551;50.478;19.378;2023-02-02T13:30:09;97371.01;;;2.28;87.41
53526;BME280;40551;50.478;19.378;2023-02-02T13:32:45;97371.14;;;2.29;86.94
53526;BME280;40551;50.478;19.378;2023-02-02T13:35:20;97375.04;;;2.29;87.00
53526;BME280;40551;50.478;19.378;2023-02-02T13:38:00;97378.78;;;2.30;86.91
53526;BME280;40551;50.478;19.378;2023-02-02T13:40:37;97381.52;;;2.29;86.59
53526;BME280;40551;50.478;19.378;2023-02-02T13:43:19;97380.67;;;2.32;87.21
53526;BME280;40551;50.478;19.378;2023-02-02T13:46:02;97388.56;;;2.34;87.20
53526;BME280;40551;50.478;19.378;2023-02-02T13:48:43;97397.86;;;2.36;86.76